sensor_id;sensor_type;location;lat;lon;timestamp;pressure;altitude;pressure_sealevel;temperature;humidity
8717;BME280;4395;48.554;8.820;2023-01-28T00:01:40;96317.25;;;-0.94;100.00
8717;BME280;4395;48.554;8.820;2023-01-28T00:03:43;96245.84;;;-1.40;100.00
8717;BME280;4395;48.554;8.820;2023-01-28T00:05:46;96335.13;;;-0.74;100.00
8717;BME280;4395;48.554;8.820;2023-01-28T00:07:49;96333.47;;;-0.67;100.00
8717;BME280;4395;48.554;8.820;2023-01-28T00:09:52;96334.69;;;-0.46;100.00
8717;BME280;4395;48.554;8.820;2023-01-28T00:11:55;96325.66;;;-0.60;100.00
8717;BME280;4395;48.554;8.820;2023-01-28T00:13:58;96327.97;;;-0.57;100.00
8717;BME280;4395;48.554;8.820;2023-01-28T00:16:02;96310.53;;;-0.66;100.00
8717;BME280;4395;48.554;8.820;2023-01-28T00:18:07;96329.41;;;-0.46;100.00
8717;BME280;4395;48.554;8.820;2023-01-28T00:20:10;96324.41;;;-0.41;100.00
8717;BME280;4395;48.554;8.820;2023-01-28T00:22:13;96327.19;;;-0.35;100.00
8717;BME280;4395;48.554;8.820;2023-01-28T00:24:16;96326.78;;;-0.54;100.00
8717;BME280;4395;48.554;8.820;2023-01-28T00:26:20;96326.25;;;-0.42;100.00
8717;BME280;4395;48.554;8.820;2023-01-28T00:28:23;96326.47;;;-0.51;100.00
8717;BME280;4395;48.554;8.820;2023-01-28T00:30:26;96331.88;;;-0.45;100.00
8717;BME280;4395;48.554;8.820;2023-01-28T00:32:29;96322.78;;;-0.42;100.00
8717;BME280;4395;48.554;8.820;2023-01-28T00:34:33;96322.03;;;-0.28;100.00
8717;BME280;4395;48.554;8.820;2023-01-28T00:36:40;96326.13;;;-0.25;100.00
8717;BME280;4395;48.554;8.820;2023-01-28T00:38:48;96221.47;;;-1.03;100.00
8717;BME280;4395;48.554;8.820;2023-01-28T00:40:51;96278.69;;;-1.04;100.00
8717;BME280;4395;48.554;8.820;2023-01-28T00:42:54;96294.31;;;-0.94;100.00
8717;BME280;4395;48.554;8.820;2023-01-28T00:44:57;96313.56;;;-0.85;100.00
8717;BME280;4395;48.554;8.820;2023-01-28T00:47:00;96290.47;;;-0.83;100.00
8717;BME280;4395;48.554;8.820;2023-01-28T00:49:03;96322.75;;;-0.73;100.00
8717;BME280;4395;48.554;8.820;2023-01-28T00:51:11;96260.53;;;-0.99;100.00
8717;BME280;4395;48.554;8.820;2023-01-28T00:53:14;96323.72;;;-0.66;100.00
8717;BME280;4395;48.554;8.820;2023-01-28T00:55:18;96315.75;;;-0.58;100.00
8717;BME280;4395;48.554;8.820;2023-01-28T00:57:22;96306.94;;;-0.73;100.00
8717;BME280;4395;48.554;8.820;2023-01-28T00:59:25;96289.22;;;-0.65;100.00
8717;BME280;4395;48.554;8.820;2023-01-28T01:01:28;96318.09;;;-0.63;100.00
8717;BME280;4395;48.554;8.820;2023-01-28T01:03:31;96281.94;;;-0.93;100.00
8717;BME280;4395;48.554;8.820;2023-01-28T01:05:34;96300.69;;;-0.80;100.00
8717;BME280;4395;48.554;8.820;2023-01-28T01:07:38;96308.47;;;-0.87;100.00
8717;BME280;4395;48.554;8.820;2023-01-28T01:09:43;96321.13;;;-0.74;100.00
8717;BME280;4395;48.554;8.820;2023-01-28T01:11:45;96309.97;;;-0.53;100.00
8717;BME280;4395;48.554;8.820;2023-01-28T01:13:52;96315.31;;;-0.39;100.00
8717;BME280;4395;48.554;8.820;2023-01-28T01:16:03;96308.69;;;-0.66;100.00
8717;BME280;4395;48.554;8.820;2023-01-28T01:18:06;96266.72;;;-0.83;100.00
8717;BME280;4395;48.554;8.820;2023-01-28T01:20:12;96303.47;;;-0.74;100.00
8717;BME280;4395;48.554;8.820;2023-01-28T01:22:15;96306.94;;;-0.73;100.00
8717;BME280;4395;48.554;8.820;2023-01-28T01:24:20;96315.34;;;-0.78;100.00
8717;BME280;4395;48.554;8.820;2023-01-28T01:26:24;96313.00;;;-0.65;100.00
8717;BME280;4395;48.554;8.820;2023-01-28T01:28:31;96277.53;;;-1.01;100.00
8717;BME280;4395;48.554;8.820;2023-01-28T01:30:34;96328.44;;;-0.92;100.00
8717;BME280;4395;48.554;8.820;2023-01-28T01:32:37;96332.22;;;-0.87;100.00
8717;BME280;4395;48.554;8.820;2023-01-28T01:34:40;96314.28;;;-1.00;100.00
8717;BME280;4395;48.554;8.820;2023-01-28T01:36:43;96295.53;;;-1.13;100.00
8717;BME280;4395;48.554;8.820;2023-01-28T01:38:47;96327.34;;;-0.67;100.00
8717;BME280;4395;48.554;8.820;2023-01-28T01:40:51;96329.63;;;-0.56;100.00
8717;BME280;4395;48.554;8.820;2023-01-28T01:42:55;96332.94;;;-0.62;100.00
8717;BME280;4395;48.554;8.820;2023-01-28T01:45:00;96325.19;;;-0.63;100.00
8717;BME280;4395;48.554;8.820;2023-01-28T01:47:03;96329.34;;;-0.69;100.00
8717;BME280;4395;48.554;8.820;2023-01-28T01:49:13;96331.06;;;-0.84;100.00
8717;BME280;4395;48.554;8.820;2023-01-28T01:51:24;96326.13;;;-0.87;100.00
8717;BME280;4395;48.554;8.820;2023-01-28T01:53:29;96332.13;;;-1.02;100.00
8717;BME280;4395;48.554;8.820;2023-01-28T01:55:34;96304.44;;;-1.14;100.00
8717;BME280;4395;48.554;8.820;2023-01-28T01:57:40;96321.72;;;-1.03;100.00
8717;BME280;4395;48.554;8.820;2023-01-28T01:59:45;96331.75;;;-0.90;100.00
8717;BME280;4395;48.554;8.820;2023-01-28T02:01:48;96335.50;;;-0.85;100.00
8717;BME280;4395;48.554;8.820;2023-01-28T02:03:55;96341.41;;;-0.75;100.00
8717;BME280;4395;48.554;8.820;2023-01-28T02:06:01;96331.94;;;-1.00;100.00
8717;BME280;4395;48.554;8.820;2023-01-28T02:08:05;96339.13;;;-0.78;100.00
8717;BME280;4395;48.554;8.820;2023-01-28T02:10:23;96211.63;;;-1.56;100.00
8717;BME280;4395;48.554;8.820;2023-01-28T02:12:29;96330.72;;;-0.81;100.00
8717;BME280;4395;48.554;8.820;2023-01-28T02:14:40;96337.16;;;-0.84;100.00
8717;BME280;4395;48.554;8.820;2023-01-28T02:16:43;96289.03;;;-1.41;100.00
8717;BME280;4395;48.554;8.820;2023-01-28T02:18:46;96293.59;;;-1.19;100.00
8717;BME280;4395;48.554;8.820;2023-01-28T02:21:18;96329.19;;;-1.15;100.00
8717;BME280;4395;48.554;8.820;2023-01-28T02:23:38;96341.66;;;-1.01;100.00
8717;BME280;4395;48.554;8.820;2023-01-28T02:26:02;96342.06;;;-0.73;100.00
8717;BME280;4395;48.554;8.820;2023-01-28T02:28:21;96338.66;;;-0.50;100.00
8717;BME280;4395;48.554;8.820;2023-01-28T02:30:29;96345.94;;;-0.52;100.00
8717;BME280;4395;48.554;8.820;2023-01-28T02:32:39;96324.25;;;-0.71;100.00
8717;BME280;4395;48.554;8.820;2023-01-28T02:34:47;96332.38;;;-0.49;100.00
8717;BME280;4395;48.554;8.820;2023-01-28T02:36:54;96338.91;;;-0.37;100.00
8717;BME280;4395;48.554;8.820;2023-01-28T02:39:05;96329.34;;;-0.38;100.00
8717;BME280;4395;48.554;8.820;2023-01-28T02:41:14;96334.69;;;-0.46;100.00
8717;BME280;4395;48.554;8.820;2023-01-28T02:43:30;96325.28;;;-0.49;100.00
8717;BME280;4395;48.554;8.820;2023-01-28T02:45:34;96341.13;;;-0.49;100.00
8717;BME280;4395;48.554;8.820;2023-01-28T02:47:51;96254.16;;;-1.12;100.00
8717;BME280;4395;48.554;8.820;2023-01-28T02:50:04;96343.00;;;-1.05;100.00
8717;BME280;4395;48.554;8.820;2023-01-28T02:52:31;96328.47;;;-1.01;100.00
8717;BME280;4395;48.554;8.820;2023-01-28T02:54:58;96277.31;;;-1.31;100.00
8717;BME280;4395;48.554;8.820;2023-01-28T02:57:13;96341.41;;;-0.75;100.00
8717;BME280;4395;48.554;8.820;2023-01-28T02:59:25;96325.66;;;-0.99;100.00
8717;BME280;4395;48.554;8.820;2023-01-28T03:01:38;96344.09;;;-0.83;100.00
8717;BME280;4395;48.554;8.820;2023-01-28T03:03:51;96347.50;;;-0.74;100.00
8717;BME280;4395;48.554;8.820;2023-01-28T03:06:01;96342.69;;;-0.62;100.00
8717;BME280;4395;48.554;8.820;2023-01-28T03:08:08;96349.59;;;-0.61;100.00
8717;BME280;4395;48.554;8.820;2023-01-28T03:10:26;96349.09;;;-0.57;100.00
8717;BME280;4395;48.554;8.820;2023-01-28T03:12:31;96355.03;;;-0.55;100.00
8717;BME280;4395;48.554;8.820;2023-01-28T03:14:55;96333.63;;;-0.68;100.00
8717;BME280;4395;48.554;8.820;2023-01-28T03:17:21;96279.31;;;-0.93;100.00
8717;BME280;4395;48.554;8.820;2023-01-28T03:19:44;96348.06;;;-0.48;100.00
8717;BME280;4395;48.554;8.820;2023-01-28T03:22:05;96356.34;;;-0.59;100.00
8717;BME280;4395;48.554;8.820;2023-01-28T03:24:29;96348.13;;;-0.64;100.00
8717;BME280;4395;48.554;8.820;2023-01-28T03:27:05;96334.91;;;-0.56;100.00
8717;BME280;4395;48.554;8.820;2023-01-28T03:29:34;96355.59;;;-0.37;100.00
8717;BME280;4395;48.554;8.820;2023-01-28T03:31:58;96362.56;;;-0.44;100.00
8717;BME280;4395;48.554;8.820;2023-01-28T03:34:20;96358.44;;;-0.46;100.00
8717;BME280;4395;48.554;8.820;2023-01-28T03:36:41;96363.63;;;-0.61;100.00
8717;BME280;4395;48.554;8.820;2023-01-28T03:39:13;96221.81;;;-1.45;100.00
8717;BME280;4395;48.554;8.820;2023-01-28T03:41:20;96356.00;;;-0.56;100.00
8717;BME280;4395;48.554;8.820;2023-01-28T03:43:24;96358.00;;;-0.58;100.00
8717;BME280;4395;48.554;8.820;2023-01-28T03:45:29;96344.81;;;-0.58;100.00
8717;BME280;4395;48.554;8.820;2023-01-28T03:47:32;96362.66;;;-0.68;100.00
8717;BME280;4395;48.554;8.820;2023-01-28T03:49:39;96365.00;;;-0.73;100.00
8717;BME280;4395;48.554;8.820;2023-01-28T03:51:42;96371.72;;;-0.62;100.00
8717;BME280;4395;48.554;8.820;2023-01-28T03:53:47;96364.44;;;-0.60;100.00
8717;BME280;4395;48.554;8.820;2023-01-28T03:55:51;96346.53;;;-0.73;100.00
8717;BME280;4395;48.554;8.820;2023-01-28T03:57:54;96369.91;;;-0.62;100.00
8717;BME280;4395;48.554;8.820;2023-01-28T03:59:57;96372.59;;;-0.78;100.00
8717;BME280;4395;48.554;8.820;2023-01-28T04:02:00;96371.66;;;-0.93;100.00
8717;BME280;4395;48.554;8.820;2023-01-28T04:04:05;96364.75;;;-1.03;100.00
8717;BME280;4395;48.554;8.820;2023-01-28T04:06:08;96369.38;;;-0.97;100.00
8717;BME280;4395;48.554;8.820;2023-01-28T04:08:26;96364.38;;;-0.83;100.00
8717;BME280;4395;48.554;8.820;2023-01-28T04:10:45;96185.69;;;-1.92;100.00
8717;BME280;4395;48.554;8.820;2023-01-28T04:13:03;96374.50;;;-0.56;100.00
8717;BME280;4395;48.554;8.820;2023-01-28T04:15:06;96370.22;;;-0.57;100.00
8717;BME280;4395;48.554;8.820;2023-01-28T04:17:17;96373.22;;;-0.68;100.00
8717;BME280;4395;48.554;8.820;2023-01-28T04:19:23;96369.91;;;-0.62;100.00
8717;BME280;4395;48.554;8.820;2023-01-28T04:21:27;96369.34;;;-0.49;100.00
8717;BME280;4395;48.554;8.820;2023-01-28T04:23:30;96374.38;;;-0.71;100.00
8717;BME280;4395;48.554;8.820;2023-01-28T04:25:33;96370.78;;;-0.78;100.00
8717;BME280;4395;48.554;8.820;2023-01-28T04:27:39;96381.84;;;-0.82;100.00
8717;BME280;4395;48.554;8.820;2023-01-28T04:29:52;96385.81;;;-0.78;100.00
8717;BME280;4395;48.554;8.820;2023-01-28T04:32:07;96381.81;;;-0.66;100.00
8717;BME280;4395;48.554;8.820;2023-01-28T04:34:37;96386.44;;;-0.76;100.00
8717;BME280;4395;48.554;8.820;2023-01-28T04:36:59;96390.56;;;-0.74;100.00
8717;BME280;4395;48.554;8.820;2023-01-28T04:39:28;96388.38;;;-0.62;100.00
8717;BME280;4395;48.554;8.820;2023-01-28T04:41:51;96391.03;;;-0.62;100.00
8717;BME280;4395;48.554;8.820;2023-01-28T04:44:02;96395.16;;;-0.68;100.00
8717;BME280;4395;48.554;8.820;2023-01-28T04:46:27;96396.88;;;-0.44;100.00
8717;BME280;4395;48.554;8.820;2023-01-28T04:48:36;96406.41;;;-0.35;100.00
8717;BME280;4395;48.554;8.820;2023-01-28T04:51:01;96395.72;;;-0.41;100.00
8717;BME280;4395;48.554;8.820;2023-01-28T04:53:16;96403.47;;;-0.40;100.00
8717;BME280;4395;48.554;8.820;2023-01-28T04:55:30;96394.91;;;-0.42;100.00
8717;BME280;4395;48.554;8.820;2023-01-28T04:57:34;96410.22;;;-0.37;100.00
8717;BME280;4395;48.554;8.820;2023-01-28T04:59:40;96406.41;;;-0.35;100.00
8717;BME280;4395;48.554;8.820;2023-01-28T05:01:42;96403.69;;;-0.49;100.00
8717;BME280;4395;48.554;8.820;2023-01-28T05:03:45;96401.13;;;-0.74;100.00
8717;BME280;4395;48.554;8.820;2023-01-28T05:05:55;96419.44;;;-0.72;100.00
8717;BME280;4395;48.554;8.820;2023-01-28T05:08:10;96417.25;;;-0.60;100.00
8717;BME280;4395;48.554;8.820;2023-01-28T05:10:13;96403.53;;;-0.56;100.00
8717;BME280;4395;48.554;8.820;2023-01-28T05:12:15;96391.81;;;-0.53;100.00
8717;BME280;4395;48.554;8.820;2023-01-28T05:14:18;96411.34;;;-0.32;100.00
8717;BME280;4395;48.554;8.820;2023-01-28T05:16:41;96410.56;;;-0.40;100.00
8717;BME280;4395;48.554;8.820;2023-01-28T05:18:45;96413.91;;;-0.46;100.00
8717;BME280;4395;48.554;8.820;2023-01-28T05:20:51;96417.84;;;-0.42;100.00
8717;BME280;4395;48.554;8.820;2023-01-28T05:22:56;96415.75;;;-0.55;100.00
8717;BME280;4395;48.554;8.820;2023-01-28T05:25:09;96414.84;;;-0.39;100.00
8717;BME280;4395;48.554;8.820;2023-01-28T05:27:11;96415.25;;;-0.19;100.00
8717;BME280;4395;48.554;8.820;2023-01-28T05:29:15;96417.25;;;-0.21;100.00
8717;BME280;4395;48.554;8.820;2023-01-28T05:31:18;96405.09;;;-0.30;100.00
8717;BME280;4395;48.554;8.820;2023-01-28T05:33:21;96409.03;;;-0.26;100.00
8717;BME280;4395;48.554;8.820;2023-01-28T05:35:24;96401.44;;;-0.29;100.00
8717;BME280;4395;48.554;8.820;2023-01-28T05:37:26;96413.69;;;-0.37;100.00
8717;BME280;4395;48.554;8.820;2023-01-28T05:39:30;96393.25;;;-0.43;100.00
8717;BME280;4395;48.554;8.820;2023-01-28T05:41:34;96421.09;;;-0.32;100.00
8717;BME280;4395;48.554;8.820;2023-01-28T05:43:38;96417.34;;;-0.38;100.00
8717;BME280;4395;48.554;8.820;2023-01-28T05:46:09;96406.75;;;-0.38;100.00
8717;BME280;4395;48.554;8.820;2023-01-28T05:48:31;96416.16;;;-0.35;100.00
8717;BME280;4395;48.554;8.820;2023-01-28T05:50:45;96426.28;;;-0.47;100.00
8717;BME280;4395;48.554;8.820;2023-01-28T05:52:52;96431.31;;;-0.29;100.00
8717;BME280;4395;48.554;8.820;2023-01-28T05:55:00;96399.50;;;-0.36;100.00
8717;BME280;4395;48.554;8.820;2023-01-28T05:57:04;96431.03;;;-0.03;100.00
8717;BME280;4395;48.554;8.820;2023-01-28T05:59:10;96432.38;;;0.01;100.00
8717;BME280;4395;48.554;8.820;2023-01-28T06:01:16;96427.13;;;-0.15;100.00
8717;BME280;4395;48.554;8.820;2023-01-28T06:03:27;96432.38;;;0.01;100.00
8717;BME280;4395;48.554;8.820;2023-01-28T06:05:30;96372.50;;;-0.54;100.00
8717;BME280;4395;48.554;8.820;2023-01-28T06:07:35;96428.38;;;-0.34;100.00
8717;BME280;4395;48.554;8.820;2023-01-28T06:09:38;96409.09;;;-0.43;100.00
8717;BME280;4395;48.554;8.820;2023-01-28T06:11:42;96434.75;;;-0.20;100.00
8717;BME280;4395;48.554;8.820;2023-01-28T06:13:48;96436.50;;;-0.05;100.00
8717;BME280;4395;48.554;8.820;2023-01-28T06:16:06;96437.00;;;-0.09;100.00
8717;BME280;4395;48.554;8.820;2023-01-28T06:18:31;96437.16;;;-0.03;100.00
8717;BME280;4395;48.554;8.820;2023-01-28T06:20:34;96443.97;;;-0.16;100.00
8717;BME280;4395;48.554;8.820;2023-01-28T06:22:37;96434.19;;;-0.47;100.00
8717;BME280;4395;48.554;8.820;2023-01-28T06:24:39;96447.59;;;-0.56;100.00
8717;BME280;4395;48.554;8.820;2023-01-28T06:26:42;96442.84;;;-0.61;100.00
8717;BME280;4395;48.554;8.820;2023-01-28T06:28:45;96452.91;;;-0.65;100.00
8717;BME280;4395;48.554;8.820;2023-01-28T06:30:51;96450.03;;;-0.47;100.00
8717;BME280;4395;48.554;8.820;2023-01-28T06:32:54;96460.59;;;-0.47;100.00
8717;BME280;4395;48.554;8.820;2023-01-28T06:34:57;96460.91;;;-0.34;100.00
8717;BME280;4395;48.554;8.820;2023-01-28T06:37:00;96466.31;;;-0.27;100.00
8717;BME280;4395;48.554;8.820;2023-01-28T06:39:04;96471.53;;;-0.11;100.00
8717;BME280;4395;48.554;8.820;2023-01-28T06:41:07;96476.31;;;-0.06;100.00
8717;BME280;4395;48.554;8.820;2023-01-28T06:43:10;96479.84;;;-0.22;100.00
8717;BME280;4395;48.554;8.820;2023-01-28T06:45:13;96482.97;;;-0.18;100.00
8717;BME280;4395;48.554;8.820;2023-01-28T06:47:17;96432.88;;;-0.43;100.00
8717;BME280;4395;48.554;8.820;2023-01-28T06:49:20;96475.00;;;-0.10;100.00
8717;BME280;4395;48.554;8.820;2023-01-28T06:51:23;96487.88;;;0.01;100.00
8717;BME280;4395;48.554;8.820;2023-01-28T06:53:26;96479.78;;;-0.06;100.00
8717;BME280;4395;48.554;8.820;2023-01-28T06:55:29;96479.63;;;-0.12;100.00
8717;BME280;4395;48.554;8.820;2023-01-28T06:57:32;96492.81;;;-0.04;100.00
8717;BME280;4395;48.554;8.820;2023-01-28T06:59:35;96488.91;;;-0.16;100.00
8717;BME280;4395;48.554;8.820;2023-01-28T07:01:37;96488.84;;;0.00;100.00
8717;BME280;4395;48.554;8.820;2023-01-28T07:03:41;96491.00;;;-0.04;100.00
8717;BME280;4395;48.554;8.820;2023-01-28T07:05:44;96493.31;;;-0.09;100.00
8717;BME280;4395;48.554;8.820;2023-01-28T07:07:47;96492.47;;;0.07;100.00
8717;BME280;4395;48.554;8.820;2023-01-28T07:09:50;96458.00;;;-0.55;100.00
8717;BME280;4395;48.554;8.820;2023-01-28T07:11:52;96486.56;;;-0.11;100.00
8717;BME280;4395;48.554;8.820;2023-01-28T07:13:55;96480.94;;;0.00;100.00
8717;BME280;4395;48.554;8.820;2023-01-28T07:15:58;96489.59;;;-0.22;100.00
8717;BME280;4395;48.554;8.820;2023-01-28T07:18:02;96495.81;;;-0.15;100.00
8717;BME280;4395;48.554;8.820;2023-01-28T07:20:08;96383.41;;;-1.04;100.00
8717;BME280;4395;48.554;8.820;2023-01-28T07:22:11;96485.00;;;-0.37;100.00
8717;BME280;4395;48.554;8.820;2023-01-28T07:24:14;96477.50;;;-0.64;100.00
8717;BME280;4395;48.554;8.820;2023-01-28T07:26:17;96487.06;;;-0.63;100.00
8717;BME280;4395;48.554;8.820;2023-01-28T07:28:21;96496.41;;;-0.44;100.00
8717;BME280;4395;48.554;8.820;2023-01-28T07:30:24;96502.66;;;-0.37;100.00
8717;BME280;4395;48.554;8.820;2023-01-28T07:32:27;96471.03;;;-0.53;100.00
8717;BME280;4395;48.554;8.820;2023-01-28T07:34:29;96501.50;;;-0.35;100.00
8717;BME280;4395;48.554;8.820;2023-01-28T07:36:33;96498.94;;;-0.12;100.00
8717;BME280;4395;48.554;8.820;2023-01-28T07:38:36;96505.69;;;-0.01;100.00
8717;BME280;4395;48.554;8.820;2023-01-28T07:40:40;96479.97;;;-0.15;100.00
8717;BME280;4395;48.554;8.820;2023-01-28T07:42:44;96502.28;;;-0.18;100.00
8717;BME280;4395;48.554;8.820;2023-01-28T07:44:47;96511.53;;;-0.22;100.00
8717;BME280;4395;48.554;8.820;2023-01-28T07:46:50;96492.56;;;-0.25;100.00
8717;BME280;4395;48.554;8.820;2023-01-28T07:48:53;96497.13;;;-0.11;100.00
8717;BME280;4395;48.554;8.820;2023-01-28T07:50:57;96501.50;;;-0.35;100.00
8717;BME280;4395;48.554;8.820;2023-01-28T07:53:03;96510.72;;;-0.22;100.00
8717;BME280;4395;48.554;8.820;2023-01-28T07:55:07;96502.84;;;-0.39;100.00
8717;BME280;4395;48.554;8.820;2023-01-28T07:57:09;96515.41;;;-0.49;100.00
8717;BME280;4395;48.554;8.820;2023-01-28T07:59:12;96521.00;;;-0.36;100.00
8717;BME280;4395;48.554;8.820;2023-01-28T08:01:15;96525.50;;;-0.52;100.00
8717;BME280;4395;48.554;8.820;2023-01-28T08:03:18;96526.22;;;-0.19;100.00
8717;BME280;4395;48.554;8.820;2023-01-28T08:05:21;96526.84;;;-0.09;100.00
8717;BME280;4395;48.554;8.820;2023-01-28T08:07:26;96527.19;;;-0.12;100.00
8717;BME280;4395;48.554;8.820;2023-01-28T08:09:30;96433.97;;;-0.76;100.00
8717;BME280;4395;48.554;8.820;2023-01-28T08:11:37;96533.78;;;-0.08;100.00
8717;BME280;4395;48.554;8.820;2023-01-28T08:13:40;96524.81;;;0.09;100.00
8717;BME280;4395;48.554;8.820;2023-01-28T08:15:43;96532.94;;;0.08;100.00
8717;BME280;4395;48.554;8.820;2023-01-28T08:17:46;96531.22;;;0.23;100.00
8717;BME280;4395;48.554;8.820;2023-01-28T08:19:49;96530.13;;;0.09;100.00
8717;BME280;4395;48.554;8.820;2023-01-28T08:21:52;96535.66;;;0.22;100.00
8717;BME280;4395;48.554;8.820;2023-01-28T08:23:54;96531.06;;;0.16;100.00
8717;BME280;4395;48.554;8.820;2023-01-28T08:25:59;96526.66;;;0.40;100.00
8717;BME280;4395;48.554;8.820;2023-01-28T08:28:03;96522.28;;;0.24;100.00
8717;BME280;4395;48.554;8.820;2023-01-28T08:30:07;96521.81;;;0.20;100.00
8717;BME280;4395;48.554;8.820;2023-01-28T08:32:10;96542.00;;;0.13;100.00
8717;BME280;4395;48.554;8.820;2023-01-28T08:34:13;96542.25;;;0.26;100.00
8717;BME280;4395;48.554;8.820;2023-01-28T08:36:16;96511.44;;;0.11;100.00
8717;BME280;4395;48.554;8.820;2023-01-28T08:38:18;96544.09;;;0.57;100.00
8717;BME280;4395;48.554;8.820;2023-01-28T08:40:21;96548.31;;;0.66;100.00
8717;BME280;4395;48.554;8.820;2023-01-28T08:42:25;96550.31;;;0.64;100.00
8717;BME280;4395;48.554;8.820;2023-01-28T08:44:28;96559.59;;;0.60;100.00
8717;BME280;4395;48.554;8.820;2023-01-28T08:46:31;96559.97;;;0.57;100.00
8717;BME280;4395;48.554;8.820;2023-01-28T08:48:34;96556.53;;;0.48;100.00
8717;BME280;4395;48.554;8.820;2023-01-28T08:50:39;96537.56;;;-0.03;100.00
8717;BME280;4395;48.554;8.820;2023-01-28T08:52:41;96558.31;;;0.25;100.00
8717;BME280;4395;48.554;8.820;2023-01-28T08:54:45;96557.78;;;0.29;100.00
8717;BME280;4395;48.554;8.820;2023-01-28T08:56:47;96558.00;;;0.51;100.00
8717;BME280;4395;48.554;8.820;2023-01-28T08:58:53;96549.03;;;0.60;100.00
8717;BME280;4395;48.554;8.820;2023-01-28T09:00:56;96551.88;;;0.50;100.00
8717;BME280;4395;48.554;8.820;2023-01-28T09:02:59;96537.03;;;0.72;100.00
8717;BME280;4395;48.554;8.820;2023-01-28T09:05:05;96546.56;;;0.81;100.00
8717;BME280;4395;48.554;8.820;2023-01-28T09:07:08;96564.88;;;0.91;100.00
8717;BME280;4395;48.554;8.820;2023-01-28T09:09:11;96564.69;;;0.92;100.00
8717;BME280;4395;48.554;8.820;2023-01-28T09:11:14;96560.09;;;0.86;100.00
8717;BME280;4395;48.554;8.820;2023-01-28T09:13:16;96571.34;;;0.88;100.00
8717;BME280;4395;48.554;8.820;2023-01-28T09:15:21;96573.28;;;0.94;100.00
8717;BME280;4395;48.554;8.820;2023-01-28T09:17:23;96562.69;;;0.94;100.00
8717;BME280;4395;48.554;8.820;2023-01-28T09:19:26;96483.91;;;0.59;100.00
8717;BME280;4395;48.554;8.820;2023-01-28T09:21:30;96496.41;;;0.65;100.00
8717;BME280;4395;48.554;8.820;2023-01-28T09:23:33;96565.28;;;1.25;100.00
8717;BME280;4395;48.554;8.820;2023-01-28T09:25:37;96549.03;;;1.06;100.00
8717;BME280;4395;48.554;8.820;2023-01-28T09:27:40;96567.22;;;1.32;100.00
8717;BME280;4395;48.554;8.820;2023-01-28T09:29:43;96564.03;;;1.13;100.00
8717;BME280;4395;48.554;8.820;2023-01-28T09:31:47;96575.88;;;1.25;100.00
8717;BME280;4395;48.554;8.820;2023-01-28T09:33:50;96579.16;;;1.05;100.00
8717;BME280;4395;48.554;8.820;2023-01-28T09:35:58;96574.22;;;1.24;100.00
8717;BME280;4395;48.554;8.820;2023-01-28T09:38:02;96580.44;;;1.32;100.00
8717;BME280;4395;48.554;8.820;2023-01-28T09:40:06;96585.00;;;1.00;100.00
8717;BME280;4395;48.554;8.820;2023-01-28T09:42:26;96583.69;;;1.19;100.00
8717;BME280;4395;48.554;8.820;2023-01-28T09:44:42;96579.38;;;1.41;100.00
8717;BME280;4395;48.554;8.820;2023-01-28T09:46:59;96600.09;;;1.37;100.00
8717;BME280;4395;48.554;8.820;2023-01-28T09:49:13;96580.31;;;1.48;100.00
8717;BME280;4395;48.554;8.820;2023-01-28T09:51:28;96583.88;;;1.55;100.00
8717;BME280;4395;48.554;8.820;2023-01-28T09:53:37;96590.59;;;1.66;100.00
8717;BME280;4395;48.554;8.820;2023-01-28T09:55:45;96586.50;;;1.78;100.00
8717;BME280;4395;48.554;8.820;2023-01-28T09:57:50;96588.84;;;1.73;100.00
8717;BME280;4395;48.554;8.820;2023-01-28T09:59:53;96593.34;;;1.72;100.00
8717;BME280;4395;48.554;8.820;2023-01-28T10:02:10;96592.66;;;1.55;100.00
8717;BME280;4395;48.554;8.820;2023-01-28T10:04:27;96591.09;;;1.46;100.00
8717;BME280;4395;48.554;8.820;2023-01-28T10:06:42;96592.50;;;1.72;100.00
8717;BME280;4395;48.554;8.820;2023-01-28T10:09:09;96585.09;;;1.67;100.00
8717;BME280;4395;48.554;8.820;2023-01-28T10:11:24;96578.78;;;1.68;100.00
8717;BME280;4395;48.554;8.820;2023-01-28T10:13:38;96583.25;;;1.53;100.00
8717;BME280;4395;48.554;8.820;2023-01-28T10:15:50;96589.06;;;1.86;100.00
8717;BME280;4395;48.554;8.820;2023-01-28T10:18:00;96586.69;;;2.06;100.00
8717;BME280;4395;48.554;8.820;2023-01-28T10:20:22;96588.25;;;2.00;100.00
8717;BME280;4395;48.554;8.820;2023-01-28T10:22:31;96590.09;;;2.14;100.00
8717;BME280;4395;48.554;8.820;2023-01-28T10:24:40;96579.91;;;1.88;100.00
8717;BME280;4395;48.554;8.820;2023-01-28T10:26:46;96542.25;;;1.64;100.00
8717;BME280;4395;48.554;8.820;2023-01-28T10:28:53;96586.75;;;1.68;100.00
8717;BME280;4395;48.554;8.820;2023-01-28T10:30:56;96560.66;;;1.42;100.00
8717;BME280;4395;48.554;8.820;2023-01-28T10:33:03;96507.38;;;1.22;100.00
8717;BME280;4395;48.554;8.820;2023-01-28T10:35:07;96583.84;;;1.78;100.00
8717;BME280;4395;48.554;8.820;2023-01-28T10:37:12;96567.50;;;1.89;100.00
8717;BME280;4395;48.554;8.820;2023-01-28T10:39:20;96575.72;;;2.09;100.00
8717;BME280;4395;48.554;8.820;2023-01-28T10:41:23;96579.56;;;2.21;100.00
8717;BME280;4395;48.554;8.820;2023-01-28T10:43:30;96580.66;;;2.26;100.00
8717;BME280;4395;48.554;8.820;2023-01-28T10:45:37;96576.44;;;2.17;100.00
8717;BME280;4395;48.554;8.820;2023-01-28T10:47:45;96577.28;;;2.03;100.00
8717;BME280;4395;48.554;8.820;2023-01-28T10:49:53;96579.09;;;2.17;100.00
8717;BME280;4395;48.554;8.820;2023-01-28T10:51:57;96574.53;;;2.26;100.00
8717;BME280;4395;48.554;8.820;2023-01-28T10:54:01;96424.19;;;1.46;100.00
8717;BME280;4395;48.554;8.820;2023-01-28T10:56:06;96571.78;;;2.34;100.00
8717;BME280;4395;48.554;8.820;2023-01-28T10:58:15;96582.47;;;2.26;100.00
8717;BME280;4395;48.554;8.820;2023-01-28T11:00:25;96583.03;;;2.21;100.00
8717;BME280;4395;48.554;8.820;2023-01-28T11:02:30;96586.69;;;2.20;100.00
8717;BME280;4395;48.554;8.820;2023-01-28T11:04:37;96587.16;;;2.09;100.00
8717;BME280;4395;48.554;8.820;2023-01-28T11:06:41;96578.91;;;2.19;100.00
8717;BME280;4395;48.554;8.820;2023-01-28T11:08:44;96596.19;;;2.00;100.00
8717;BME280;4395;48.554;8.820;2023-01-28T11:10:47;96582.84;;;2.23;100.00
8717;BME280;4395;48.554;8.820;2023-01-28T11:12:54;96577.09;;;2.05;100.00
8717;BME280;4395;48.554;8.820;2023-01-28T11:14:58;96579.56;;;2.06;100.00
8717;BME280;4395;48.554;8.820;2023-01-28T11:17:01;96579.84;;;2.26;100.00
8717;BME280;4395;48.554;8.820;2023-01-28T11:19:05;96581.19;;;1.92;100.00
8717;BME280;4395;48.554;8.820;2023-01-28T11:21:15;96577.28;;;2.33;100.00
8717;BME280;4395;48.554;8.820;2023-01-28T11:23:23;96558.69;;;2.33;100.00
8717;BME280;4395;48.554;8.820;2023-01-28T11:25:30;96574.78;;;2.46;100.00
8717;BME280;4395;48.554;8.820;2023-01-28T11:27:33;96576.78;;;2.44;100.00